EPRZ

Rzeszów-Jasionka Airport

Rzeszów, Poland
METAR EPRZ 170200Z 21004KT 9000 FEW030 BKN045 00/M02 Q1013
Observed Flight Rules
Dec-17 @ 02:00 UTC (28 minutes ago) Visual Flight Rules
Wind Visibility Clouds
210° at 4 knots 8,996 meters
  • Few at 3,000' AGL
  • Broken at 4,500' AGL
Temperatures Readings
Current 0°C / 32°F
Dewpoint -2°C / 28°F
Humidity 87%
Altimeter 29.91" Hg
Pressure 1013 hPa
Elevation 202
METAR EPRZ 170200Z 21004KT 9000 FEW030 BKN045 00/M02 Q1013
Observed Flight Rules
Dec-17 @ 02:00 UTC
(28 minutes ago)
VFR
Wind Visibility
210° at 4 knots 8,996 meters
Clouds
  • Few at 3,000' AGL
  • Broken at 4,500' AGL
Temperature Dewpoint
0°C / 32°F -2°C / 28°F
Humidity Altimeter Pressure
87% 29.91" Hg 1013 hPa